Главная страница
METAR-TAF:

METAR-TAF

Аэропорты :

Дамаск, Сирия

широта: 33-25N, долгота: 036-31E, высота над уровнем моря: 608 м

Текущие метеонаблюдения

Эта сводка был подготовлена 42 минут назад, в 07:00 UTC
Ветер 10 Узел от юго-западный
Температура 9°C
Влажность 87%
Давление 1015 hPa
Видимость: 6000 м
Отдельные облака на высоте 3000 фута
Рассеянная облачность на высоте 10000 фута

METAR: OSDI 240700Z 22010KT 6000 SCT030 BKN100 09/07 Q1015

Время: 09:42 (07:42 UTC)

Прогноз

Прогноз действительный с 24-го 06 UTC до 25-го 12 UTC
Ветер 10 Узел от юго-западный
Видимость 10 км и более
небольшая облачность на высоте 3000 фута
временами
С 24-го 12 UTC до 25-го 12 UTC
Ветер 15 Узел от юго-западный с порывами до 25 Узел
Видимость: 8000 м
небольшая облачность на высоте 2500 фута
Отдельные облака на высоте 3000 фута
Рассеянная облачность на высоте 10000 фута
ливневые дожди

TAF: OSDI 2406/2512 22010KT 9999 FEW030 TEMPO 2412/2512 22015G25KT 8000 SHRA FEW025 CB SCT030 BKN100

Метеонаблюдения и прогнозы для более 4000 аэропортов (сводки METAR и TAF).

Имеющиеся станции представлены на карте желтыми и красными точками.

Чтобы увидеть название станции, наведите на нее мышь.

Затем щелкните, чтобы увидеть метеонаблюдения и метеопрогнозы.

Управление картой: чтобы увеличить масштаб, щелкните зеленые кнопки с черным крестиком; чтобы уменьшить масштаб, щелкните зеленую кнопку с тире; для просмотра соседних карт щелкайте зеленые стрелки.


METAR-TAF: